Time;durP1;ratioP1;P1;durP2;ratioP2;P2;SDS_P1;SDS_P2;PMS_P1;PMS_P2;Temp;Humidity;BMP_temperature;BMP_pressure;BME280_temperature;BME280_humidity;BME280_pressure;Samples;Min_cycle;Max_cycle;Signal;HPM_P1;HPM_P2
2021/05/23 00:02:23;;;;;;;11.03;7.78;;;;;;;12.57;74.05;100807.93;1741408;81;20907;-68
2021/05/23 00:04:50;;;;;;;22.90;8.78;;;;;;;12.53;74.23;100802.01;1735405;82;21407;-68
2021/05/23 00:07:18;;;;;;;16.32;8.53;;;;;;;12.50;74.37;100800.91;1735454;82;21013;-68
2021/05/23 00:09:45;;;;;;;14.40;8.55;;;;;;;12.47;74.37;100802.41;1735537;81;20930;-68
2021/05/23 00:12:15;;;;;;;11.30;7.58;;;;;;;12.45;74.36;100796.42;1735530;82;21793;-68
2021/05/23 00:14:41;;;;;;;19.02;7.83;;;;;;;12.42;74.34;100793.50;1735409;82;20922;-67
2021/05/23 00:17:09;;;;;;;11.57;7.47;;;;;;;12.39;74.46;100793.70;1735468;82;20971;-68
2021/05/23 00:19:36;;;;;;;14.33;7.10;;;;;;;12.37;74.66;100801.33;1735367;82;20923;-68
2021/05/23 00:22:05;;;;;;;11.45;7.65;;;;;;;12.31;74.90;100810.45;1735513;82;20934;-69
2021/05/23 00:24:32;;;;;;;8.15;6.33;;;;;;;12.28;75.14;100806.70;1735467;82;21127;-69
2021/05/23 00:26:58;;;;;;;15.60;5.97;;;;;;;12.26;75.16;100815.64;1735242;81;20982;-67
2021/05/23 00:29:25;;;;;;;9.30;5.42;;;;;;;12.24;75.03;100819.67;1735410;82;20875;-69
2021/05/23 00:31:53;;;;;;;10.05;5.72;;;;;;;12.25;74.88;100834.53;1735341;82;20919;-69
2021/05/23 00:34:20;;;;;;;9.15;6.17;;;;;;;12.26;74.75;100834.05;1735361;82;20944;-68
2021/05/23 00:36:48;;;;;;;12.40;6.47;;;;;;;12.23;74.59;100832.47;1735470;82;21468;-68
2021/05/23 00:39:14;;;;;;;10.90;5.72;;;;;;;12.20;74.42;100824.27;1735270;82;20923;-68
2021/05/23 00:41:41;;;;;;;9.13;5.75;;;;;;;12.17;74.17;100820.53;1735372;82;20975;-68
2021/05/23 00:44:08;;;;;;;10.25;6.37;;;;;;;12.14;73.94;100815.93;1735388;82;21018;-69
2021/05/23 00:46:35;;;;;;;10.20;6.25;;;;;;;12.11;73.89;100822.23;1735495;82;20887;-68
2021/05/23 00:49:04;;;;;;;9.40;5.95;;;;;;;12.09;74.00;100819.33;1735264;82;20907;-68
2021/05/23 00:51:31;;;;;;;17.37;6.70;;;;;;;12.07;74.20;100821.20;1735424;82;21018;-68
2021/05/23 00:53:58;;;;;;;12.70;5.87;;;;;;;12.04;74.44;100810.42;1735393;82;20994;-69
2021/05/23 00:56:25;;;;;;;12.65;6.08;;;;;;;12.01;74.56;100812.78;1735430;81;20915;-70
2021/05/23 00:58:53;;;;;;;14.55;6.70;;;;;;;11.99;74.49;100817.28;1735450;81;20926;-69
2021/05/23 01:01:51;;;;;;;8.85;6.25;;;;;;;11.97;74.45;100818.33;1735297;82;21822;-68
2021/05/23 01:04:18;;;;;;;10.50;5.83;;;;;;;11.95;74.40;100815.78;1735431;82;20967;-68
2021/05/23 01:06:45;;;;;;;13.03;6.08;;;;;;;11.95;74.38;100818.89;1735301;82;21385;-67
2021/05/23 01:09:12;;;;;;;17.15;6.10;;;;;;;11.95;74.29;100812.31;1735362;82;20919;-68
2021/05/23 01:11:48;;;;;;;17.20;7.72;;;;;;;11.96;74.27;100817.94;1735411;82;20954;-68
2021/05/23 01:14:41;;;;;;;13.22;6.92;;;;;;;11.95;74.15;100810.53;1735329;82;21098;-68
2021/05/23 01:17:09;;;;;;;13.65;7.35;;;;;;;11.96;74.04;100806.11;1735350;82;21026;-68
2021/05/23 01:20:08;;;;;;;18.12;8.00;;;;;;;11.96;74.02;100799.54;1735274;82;20962;-67
2021/05/23 01:22:41;;;;;;;16.30;9.08;;;;;;;11.96;74.10;100792.97;1735391;82;20923;-67
2021/05/23 01:25:17;;;;;;;17.10;9.55;;;;;;;11.94;74.13;100796.16;1735681;82;20978;-68
2021/05/23 01:27:46;;;;;;;22.13;9.63;;;;;;;11.89;73.90;100796.92;1735344;82;21017;-68
2021/05/23 01:30:25;;;;;;;18.70;9.25;;;;;;;11.82;74.02;100798.58;1715037;82;20903;-69
2021/05/23 01:32:58;;;;;;;17.30;7.95;;;;;;;11.76;74.31;100798.98;1721796;82;20974;-67
2021/05/23 01:35:33;;;;;;;13.60;8.55;;;;;;;11.72;74.40;100794.02;1735353;82;20879;-68
2021/05/23 01:38:01;;;;;;;24.70;11.90;;;;;;;11.69;74.35;100786.31;1735309;82;20994;-68
2021/05/23 01:40:32;;;;;;;16.00;8.35;;;;;;;11.65;74.47;100780.42;1735262;82;21582;-70
2021/05/23 01:42:58;;;;;;;30.30;9.38;;;;;;;11.64;74.63;100789.70;1735315;82;20938;-68
2021/05/23 01:45:25;;;;;;;16.07;8.73;;;;;;;11.62;74.60;100790.63;1735476;82;20879;-67
2021/05/23 01:47:52;;;;;;;20.52;7.70;;;;;;;11.60;74.67;100780.71;1735570;82;21044;-67
2021/05/23 01:50:19;;;;;;;20.55;7.65;;;;;;;11.60;74.65;100775.91;1715013;82;20927;-68
2021/05/23 01:52:52;;;;;;;11.90;6.90;;;;;;;11.58;74.67;100779.09;1735532;82;21156;-67
2021/05/23 01:55:19;;;;;;;13.85;6.72;;;;;;;11.57;74.71;100776.10;1734752;81;20911;-66
2021/05/23 01:57:46;;;;;;;14.58;7.25;;;;;;;11.55;74.86;100772.25;1735536;82;20903;-68
2021/05/23 02:00:16;;;;;;;13.72;7.15;;;;;;;11.59;75.08;100781.63;1735367;82;20934;-68
2021/05/23 02:02:43;;;;;;;17.48;7.40;;;;;;;11.64;75.04;100783.97;1738786;81;21395;-69
2021/05/23 02:05:12;;;;;;;16.95;7.37;;;;;;;11.65;74.83;100780.87;1743702;82;21174;-67
2021/05/23 02:07:39;;;;;;;12.98;6.92;;;;;;;11.65;74.61;100779.11;1743643;82;20926;-67
2021/05/23 02:10:09;;;;;;;11.25;7.55;;;;;;;;;;1743805;82;20907;-68
2021/05/23 02:12:36;;;;;;;16.52;7.37;;;;;;;11.60;74.70;100776.77;1743556;81;20874;-67
2021/05/23 02:15:05;;;;;;;11.83;6.70;;;;;;;11.60;74.77;100774.59;1743670;82;20883;-68
2021/05/23 02:17:38;;;;;;;13.38;7.40;;;;;;;11.59;74.85;100777.69;1743672;82;21130;-68
2021/05/23 02:20:08;;;;;;;16.27;7.83;;;;;;;11.59;74.99;100787.36;1743346;82;20866;-68
2021/05/23 02:22:46;;;;;;;15.43;7.42;;;;;;;11.60;75.09;100786.41;1743682;82;20898;-68
2021/05/23 02:25:16;;;;;;;12.00;7.45;;;;;;;11.61;75.23;100789.42;1743601;82;20883;-68
2021/05/23 02:27:50;;;;;;;14.70;8.18;;;;;;;11.61;75.17;100782.38;1743680;82;21037;-69
2021/05/23 02:30:20;;;;;;;;;;;;;;;11.62;75.19;100782.74;1746239;82;21063;-67
2021/05/23 02:32:47;;;;;;;15.28;6.35;;;;;;;11.66;75.07;100782.58;1743483;82;20169;-68
2021/05/23 02:35:16;;;;;;;20.97;6.75;;;;;;;11.67;75.00;100780.31;1743713;82;21406;-68
2021/05/23 02:37:43;;;;;;;17.32;7.17;;;;;;;11.66;75.01;100785.20;1743544;82;20918;-67
2021/05/23 02:40:13;;;;;;;15.30;6.85;;;;;;;11.67;75.21;100784.25;1743587;82;20970;-68
2021/05/23 02:42:40;;;;;;;14.18;6.95;;;;;;;11.69;75.41;100784.52;1743641;82;21030;-68
2021/05/23 02:45:10;;;;;;;16.10;8.18;;;;;;;11.71;75.33;100771.30;1743471;82;21311;-68
2021/05/23 02:47:37;;;;;;;13.05;7.50;;;;;;;11.72;75.47;100771.22;1743549;82;20879;-68
2021/05/23 02:50:06;;;;;;;16.80;8.88;;;;;;;11.75;75.55;100768.86;1743722;82;20906;-68
2021/05/23 02:52:33;;;;;;;15.13;7.87;;;;;;;11.75;75.56;100771.02;1743676;82;20934;-67
2021/05/23 02:55:00;;;;;;;22.42;8.93;;;;;;;11.77;75.59;100774.39;1743711;82;21140;-67
2021/05/23 02:57:27;;;;;;;16.07;8.28;;;;;;;11.77;75.79;100775.70;1743652;82;20927;-68
2021/05/23 02:59:54;;;;;;;18.02;7.17;;;;;;;11.80;75.93;100772.91;1743672;82;20981;-67
2021/05/23 03:02:21;;;;;;;14.43;6.90;;;;;;;11.85;76.07;100775.69;1742597;81;21034;-69
2021/05/23 03:04:48;;;;;;;13.90;7.92;;;;;;;11.89;75.91;100779.37;1735562;82;20970;-68
2021/05/23 03:07:16;;;;;;;16.40;7.47;;;;;;;11.95;75.67;100782.94;1735475;82;21090;-68
2021/05/23 03:09:43;;;;;;;14.28;7.45;;;;;;;11.96;75.44;100780.70;1735566;82;20958;-66
2021/05/23 03:12:11;;;;;;;14.40;7.70;;;;;;;11.99;75.27;100788.38;1735407;81;20946;-67
2021/05/23 03:14:40;;;;;;;13.53;8.68;;;;;;;12.00;75.46;100795.30;1735435;82;20988;-67
2021/05/23 03:17:09;;;;;;;14.00;8.10;;;;;;;12.01;75.64;100795.69;1736111;82;20938;-67
2021/05/23 03:19:37;;;;;;;18.35;7.42;;;;;;;12.04;75.84;100799.91;1737127;81;21407;-67
2021/05/23 03:22:06;;;;;;;15.03;8.00;;;;;;;12.07;76.02;100797.55;1735799;81;20903;-68
2021/05/23 03:24:34;;;;;;;14.87;7.15;;;;;;;12.10;76.12;100800.84;1735584;82;20863;-69
2021/05/23 03:27:01;;;;;;;10.58;7.85;;;;;;;12.17;76.32;100807.87;1735540;82;21471;-68
2021/05/23 03:29:28;;;;;;;15.03;7.17;;;;;;;12.28;76.33;100812.45;1735369;82;21017;-67
2021/05/23 03:31:55;;;;;;;20.77;8.53;;;;;;;12.37;76.19;100808.74;1735560;82;21058;-67
2021/05/23 03:34:23;;;;;;;14.78;7.62;;;;;;;12.46;76.09;100811.25;1735418;82;21469;-67
2021/05/23 03:36:49;;;;;;;11.43;7.70;;;;;;;12.55;75.88;100807.19;1735376;81;20994;-68
2021/05/23 03:39:16;;;;;;;16.00;8.88;;;;;;;12.63;75.74;100799.16;1735458;82;21451;-67
2021/05/23 03:41:43;;;;;;;13.22;8.93;;;;;;;12.72;75.58;100799.51;1735371;82;20919;-67
2021/05/23 03:44:10;;;;;;;17.00;10.10;;;;;;;12.79;75.46;100806.05;1735470;82;21078;-68
2021/05/23 03:46:37;;;;;;;20.00;9.88;;;;;;;12.87;75.36;100806.36;1735413;82;20907;-68
2021/05/23 03:49:05;;;;;;;19.98;10.18;;;;;;;12.94;75.28;100809.42;1735423;82;20891;-67
2021/05/23 03:51:33;;;;;;;14.55;8.65;;;;;;;13.02;75.31;100819.81;1735262;81;20903;-68
2021/05/23 03:54:01;;;;;;;17.15;8.00;;;;;;;13.11;75.41;100818.35;1735484;82;20939;-66
2021/05/23 03:56:27;;;;;;;19.98;7.70;;;;;;;13.22;75.47;100815.00;1735478;82;21086;-67
2021/05/23 03:58:54;;;;;;;12.03;7.60;;;;;;;13.33;75.45;100824.36;1735360;81;21438;-66
2021/05/23 04:01:22;;;;;;;12.05;6.78;;;;;;;13.45;75.49;100820.90;1735428;82;20958;-69
2021/05/23 04:03:49;;;;;;;16.60;6.72;;;;;;;13.65;75.27;100822.60;1740041;81;21550;-67
2021/05/23 04:06:16;;;;;;;12.78;6.08;;;;;;;13.85;74.96;100823.39;1743489;82;20992;-66
2021/05/23 04:08:44;;;;;;;12.07;7.65;;;;;;;14.10;74.55;100820.33;1743442;82;20894;-67
2021/05/23 04:11:14;;;;;;;11.93;6.05;;;;;;;14.36;73.45;100831.65;1743537;82;20990;-67
2021/05/23 04:13:41;;;;;;;12.33;7.20;;;;;;;14.72;72.56;100828.61;1743439;82;21002;-68
2021/05/23 04:16:11;;;;;;;17.67;7.12;;;;;;;15.21;71.37;100825.41;1743485;82;21017;-67
2021/05/23 04:18:38;;;;;;;14.25;7.58;;;;;;;15.81;70.00;100830.03;1743499;82;21542;-67
2021/05/23 04:21:05;;;;;;;9.00;5.75;;;;;;;16.49;68.19;100828.95;1743645;82;21055;-68
2021/05/23 04:23:32;;;;;;;9.83;5.25;;;;;;;17.20;66.22;100823.13;1743434;82;21002;-68
2021/05/23 04:26:00;;;;;;;15.70;6.47;;;;;;;17.93;64.00;100825.25;1743535;82;20958;-68
2021/05/23 04:28:27;;;;;;;15.68;5.53;;;;;;;18.60;61.80;100827.67;1743528;82;20950;-67
2021/05/23 04:30:56;;;;;;;12.80;5.92;;;;;;;19.22;59.60;100823.41;1743648;82;20887;-68
2021/05/23 04:33:23;;;;;;;9.70;5.83;;;;;;;19.85;57.50;100833.44;1743645;82;21696;-67
2021/05/23 04:35:50;;;;;;;9.20;5.72;;;;;;;20.43;55.70;100828.27;1743428;82;20918;-68
2021/05/23 04:38:17;;;;;;;11.10;5.55;;;;;;;21.01;53.81;100834.50;1743491;81;20898;-67
2021/05/23 04:40:43;;;;;;;6.95;4.42;;;;;;;21.51;52.00;100836.52;1743434;82;21439;-67
2021/05/23 04:43:10;;;;;;;6.12;4.37;;;;;;;22.01;50.39;100835.41;1743534;82;20930;-67
2021/05/23 04:45:39;;;;;;;9.25;4.83;;;;;;;22.43;48.64;100842.07;1743441;81;20931;-68
2021/05/23 04:48:08;;;;;;;8.88;3.80;;;;;;;22.81;47.65;100842.48;1714323;82;20884;-69
2021/05/23 04:50:36;;;;;;;6.28;3.75;;;;;;;23.21;46.62;100839.48;1743465;82;20907;-70
2021/05/23 04:53:03;;;;;;;8.65;3.75;;;;;;;23.64;45.87;100835.20;1743427;82;21009;-70
2021/05/23 04:55:30;;;;;;;4.35;3.33;;;;;;;24.05;44.79;100837.73;1743419;82;21407;-68
2021/05/23 04:57:57;;;;;;;8.45;3.77;;;;;;;24.45;43.02;100838.00;1743669;81;21058;-69
2021/05/23 05:00:25;;;;;;;5.12;2.90;;;;;;;24.75;41.57;100834.98;1743467;82;20914;-69
2021/05/23 05:02:51;;;;;;;6.80;3.55;;;;;;;24.96;39.76;100831.61;1743658;81;20961;-69
2021/05/23 05:05:19;;;;;;;11.03;3.52;;;;;;;25.10;38.50;100839.88;1749402;80;21013;-68
2021/05/23 05:07:46;;;;;;;9.00;3.40;;;;;;;25.20;38.08;100839.15;1749280;82;21379;-68
2021/05/23 05:10:14;;;;;;;5.22;2.98;;;;;;;25.35;37.31;100830.61;1749261;82;21789;-68
2021/05/23 05:12:41;;;;;;;4.12;2.47;;;;;;;25.55;36.96;100836.78;1749256;80;20887;-69
2021/05/23 05:15:09;;;;;;;5.03;2.40;;;;;;;25.81;36.01;100834.45;1749356;82;21359;-68
2021/05/23 05:17:38;;;;;;;3.12;2.20;;;;;;;26.07;35.82;100839.03;1749297;80;20914;-70
2021/05/23 05:20:10;;;;;;;8.60;2.70;;;;;;;26.38;35.73;100840.93;1749500;82;20950;-69
2021/05/23 05:22:37;;;;;;;4.97;2.45;;;;;;;26.74;35.55;100837.90;1749325;80;21071;-69
2021/05/23 05:25:05;;;;;;;6.17;2.47;;;;;;;27.06;35.30;100836.01;1749504;82;21016;-70
2021/05/23 05:27:32;;;;;;;7.22;2.98;;;;;;;27.40;35.16;100832.23;1749514;82;20958;-70
2021/05/23 05:29:59;;;;;;;10.43;3.60;;;;;;;27.69;34.94;100829.28;1749538;82;20982;-69
2021/05/23 05:32:26;;;;;;;8.48;2.52;;;;;;;27.99;34.84;100825.50;1749468;82;21029;-69
2021/05/23 05:34:52;;;;;;;4.72;3.37;;;;;;;28.27;34.32;100828.09;1749623;82;21538;-69
2021/05/23 05:37:19;;;;;;;6.05;2.92;;;;;;;28.48;34.01;100830.66;1749293;82;20982;-69
2021/05/23 05:39:50;;;;;;;3.08;2.72;;;;;;;28.69;33.23;100826.11;1749580;82;21013;-69
2021/05/23 05:42:21;;;;;;;3.12;2.05;;;;;;;28.90;32.96;100827.77;1748332;82;21037;-69
2021/05/23 05:44:48;;;;;;;5.47;2.65;;;;;;;29.17;32.29;100825.94;1749537;80;20942;-69
2021/05/23 05:47:17;;;;;;;8.80;2.30;;;;;;;29.42;32.04;100826.62;1749284;82;20941;-69
2021/05/23 05:49:44;;;;;;;4.83;1.80;;;;;;;29.62;31.74;100810.34;1749284;82;21427;-69
2021/05/23 05:52:11;;;;;;;12.00;2.67;;;;;;;29.77;31.26;100819.06;1749418;80;20925;-68
2021/05/23 05:54:39;;;;;;;4.45;2.37;;;;;;;29.94;30.86;100820.73;1749311;82;21013;-70
2021/05/23 05:57:06;;;;;;;1.60;1.40;;;;;;;30.05;30.31;100818.70;1749458;82;21273;-68
2021/05/23 05:59:33;;;;;;;8.15;1.82;;;;;;;30.16;29.62;100819.38;1749454;80;21060;-70
2021/05/23 06:02:00;;;;;;;2.47;1.70;;;;;;;30.31;29.51;100823.70;1749496;82;20934;-77
2021/05/23 06:04:27;;;;;;;5.65;1.80;;;;;;;30.49;29.21;100822.96;1749365;81;20910;-74
2021/05/23 06:06:54;;;;;;;10.95;2.08;;;;;;;30.68;28.47;100814.38;1749353;82;20902;-73
2021/05/23 06:09:21;;;;;;;3.42;1.65;;;;;;;30.75;28.61;100820.05;1749450;82;20917;-74
2021/05/23 06:11:48;;;;;;;3.67;1.30;;;;;;;30.85;28.58;100819.58;1749510;80;21088;-73
2021/05/23 06:14:15;;;;;;;4.15;1.30;;;;;;;31.00;28.46;100818.42;1749316;82;20898;-73
2021/05/23 06:16:44;;;;;;;2.87;1.95;;;;;;;31.18;28.08;100815.20;1749258;82;20907;-67
2021/05/23 06:19:11;;;;;;;1.05;0.93;;;;;;;31.37;27.72;100817.93;1749504;82;21009;-70
2021/05/23 06:21:38;;;;;;;1.47;1.27;;;;;;;31.52;27.11;100813.00;1749153;82;20870;-69
2021/05/23 06:24:06;;;;;;;3.33;1.52;;;;;;;31.66;27.07;100809.63;1749455;81;21415;-68
2021/05/23 06:26:32;;;;;;;7.25;1.45;;;;;;;31.84;26.85;100809.28;1749432;81;21013;-68
2021/05/23 06:28:59;;;;;;;3.40;1.27;;;;;;;32.06;26.41;100811.86;1749115;82;20978;-69
2021/05/23 06:31:26;;;;;;;3.80;1.10;;;;;;;32.23;26.56;100806.59;1749473;82;20894;-71
2021/05/23 06:33:56;;;;;;;3.92;1.35;;;;;;;32.40;26.55;100809.48;1749301;82;20863;-69
2021/05/23 06:36:26;;;;;;;3.95;1.30;;;;;;;32.55;25.62;100811.27;1749600;82;21064;-70
2021/05/23 06:38:53;;;;;;;5.22;1.45;;;;;;;32.62;24.96;100808.44;1749497;82;20965;-68
2021/05/23 06:41:20;;;;;;;3.95;1.40;;;;;;;32.67;25.30;100806.37;1749507;82;20981;-68
2021/05/23 06:43:47;;;;;;;3.30;1.00;;;;;;;32.70;24.96;100800.47;1749448;82;20863;-67
2021/05/23 06:46:13;;;;;;;2.10;0.93;;;;;;;32.74;24.85;100796.22;1749497;82;20899;-68
2021/05/23 06:48:41;;;;;;;2.45;1.02;;;;;;;32.88;25.23;100802.25;1749494;82;21477;-70
2021/05/23 06:51:08;;;;;;;3.70;1.02;;;;;;;32.99;24.88;100800.88;1749308;82;21399;-70
2021/05/23 06:53:35;;;;;;;2.75;0.80;;;;;;;33.06;24.76;100799.44;1749473;82;20930;-70
2021/05/23 06:56:02;;;;;;;1.22;0.75;;;;;;;33.18;24.63;100796.19;1749503;82;20942;-68
2021/05/23 06:58:29;;;;;;;2.80;0.80;;;;;;;33.24;23.10;100794.43;1750125;80;20962;-68
2021/05/23 07:00:55;;;;;;;3.27;1.05;;;;;;;33.25;23.78;100791.99;1751258;82;21042;-70
2021/05/23 07:03:23;;;;;;;1.85;0.82;;;;;;;33.30;23.68;100789.91;1751536;82;20946;-71
2021/05/23 07:05:50;;;;;;;4.05;1.00;;;;;;;33.42;23.31;100790.73;1737355;81;20958;-68
2021/05/23 07:08:18;;;;;;;2.45;0.82;;;;;;;33.44;22.13;100790.78;1737229;81;20923;-69
2021/05/23 07:10:45;;;;;;;2.58;0.90;;;;;;;33.42;22.44;100789.37;1737812;82;20931;-69
2021/05/23 07:13:12;;;;;;;2.62;0.50;;;;;;;33.45;22.83;100786.98;1735511;81;21029;-69
2021/05/23 07:15:39;;;;;;;4.35;1.00;;;;;;;33.47;22.60;100786.75;1735418;82;20982;-70
2021/05/23 07:18:06;;;;;;;3.92;0.60;;;;;;;33.59;22.36;100786.20;1735530;82;20907;-71
2021/05/23 07:20:33;;;;;;;2.25;0.60;;;;;;;33.77;21.96;100787.95;1735387;81;21474;-70
2021/05/23 07:23:00;;;;;;;4.22;0.70;;;;;;;33.73;21.26;100790.86;1735371;81;20954;-70
2021/05/23 07:25:26;;;;;;;4.55;0.53;;;;;;;33.70;21.77;100790.50;1735525;81;21407;-69
2021/05/23 07:27:53;;;;;;;2.45;0.57;;;;;;;33.74;22.22;100792.49;1735210;82;20891;-74
2021/05/23 07:30:21;;;;;;;2.87;0.80;;;;;;;33.87;22.87;100791.39;1735461;81;21002;-74
2021/05/23 07:32:48;;;;;;;3.47;0.60;;;;;;;34.02;21.53;100788.14;1735284;82;21376;-66
2021/05/23 07:35:14;;;;;;;3.33;0.62;;;;;;;33.96;21.67;100787.75;1735276;81;20915;-65
2021/05/23 07:37:43;;;;;;;3.45;0.60;;;;;;;33.94;22.04;100789.88;1735307;81;20950;-72
2021/05/23 07:40:12;;;;;;;2.10;1.00;;;;;;;34.10;22.24;100794.53;1735306;82;20971;-70
2021/05/23 07:42:39;;;;;;;2.25;0.95;;;;;;;34.17;22.25;100800.67;1735420;81;21038;-66
2021/05/23 07:45:08;;;;;;;0.65;0.50;;;;;;;34.04;21.57;100799.07;1735279;82;20935;-70
2021/05/23 07:47:35;;;;;;;4.12;0.88;;;;;;;34.01;20.96;100802.80;1735388;82;20923;-69
2021/05/23 07:50:05;;;;;;;6.53;0.93;;;;;;;33.97;21.51;100795.67;1735417;81;21117;-67
2021/05/23 07:52:32;;;;;;;1.95;0.50;;;;;;;34.03;21.05;100791.95;1735225;81;20951;-68
2021/05/23 07:54:59;;;;;;;2.10;0.50;;;;;;;34.03;20.40;100794.67;1735349;82;21018;-71
2021/05/23 07:57:27;;;;;;;1.95;0.62;;;;;;;34.10;20.18;100799.16;1735410;81;20939;-68
2021/05/23 07:59:56;;;;;;;1.62;0.55;;;;;;;34.14;20.11;100805.25;1735320;82;20887;-70
2021/05/23 08:02:23;;;;;;;3.02;0.95;;;;;;;34.20;20.57;100810.27;1735325;82;21848;-70
2021/05/23 08:04:50;;;;;;;2.47;0.60;;;;;;;34.28;21.10;100813.12;1738725;81;20899;-70
2021/05/23 08:07:17;;;;;;;8.55;0.93;;;;;;;34.32;20.01;100811.56;1743477;82;20890;-70
2021/05/23 08:09:44;;;;;;;1.07;0.50;;;;;;;34.28;19.08;100807.67;1743484;82;20898;-72
2021/05/23 08:12:11;;;;;;;4.40;1.10;;;;;;;34.17;19.59;100807.48;1743576;81;20911;-72
2021/05/23 08:14:42;;;;;;;1.98;0.90;;;;;;;34.13;20.55;100809.58;1743696;81;21450;-74
2021/05/23 08:17:14;;;;;;;1.37;1.02;;;;;;;34.23;20.12;100809.77;1743471;82;21029;-72
2021/05/23 08:19:39;;;;;;;2.80;1.22;;;;;;;34.09;18.61;100801.59;1743424;81;20970;-71
2021/05/23 08:22:07;;;;;;;6.12;0.95;;;;;;;33.95;18.14;100810.57;1743322;81;20923;-70
2021/05/23 08:24:35;;;;;;;5.70;2.12;;;;;;;33.91;18.84;100803.45;1743551;82;20922;-71
2021/05/23 08:27:04;;;;;;;6.58;2.10;;;;;;;34.02;18.73;100811.27;1743512;82;21531;-72
2021/05/23 08:29:31;;;;;;;4.90;1.77;;;;;;;34.14;18.10;100805.25;1743447;82;20918;-69
2021/05/23 08:31:58;;;;;;;4.83;1.87;;;;;;;34.13;18.09;100806.34;1743537;81;20923;-71
2021/05/23 08:34:25;;;;;;;5.70;2.20;;;;;;;34.12;17.87;100803.85;1743461;82;20910;-72
2021/05/23 08:36:52;;;;;;;5.67;2.72;;;;;;;34.23;19.12;100811.13;1743578;82;20946;-72
2021/05/23 08:39:19;;;;;;;9.45;2.40;;;;;;;34.35;18.94;100817.87;1743376;82;21064;-74
2021/05/23 08:41:47;;;;;;;4.65;2.60;;;;;;;34.39;18.24;100814.95;1743536;82;20910;-75
2021/05/23 08:44:22;;;;;;;4.97;2.67;;;;;;;34.42;18.31;100814.48;1743622;82;20859;-71
2021/05/23 08:46:51;;;;;;;7.28;3.27;;;;;;;34.49;17.72;100807.51;1743592;81;20945;-73
2021/05/23 08:49:22;;;;;;;10.88;3.77;;;;;;;34.55;18.40;100807.86;1743665;82;20992;-73
2021/05/23 08:51:49;;;;;;;7.97;3.15;;;;;;;34.54;17.74;100805.68;1743469;82;21076;-71
2021/05/23 08:54:16;;;;;;;3.15;2.42;;;;;;;34.57;17.60;100809.26;1743439;82;20884;-73
2021/05/23 08:56:44;;;;;;;7.17;3.33;;;;;;;34.59;17.90;100804.39;1743445;81;20903;-70
2021/05/23 08:59:11;;;;;;;6.97;2.40;;;;;;;34.63;17.37;100803.41;1743630;82;21021;-71
2021/05/23 09:01:38;;;;;;;5.62;2.60;;;;;;;34.66;17.28;100798.81;1743184;82;20894;-70
2021/05/23 09:04:07;;;;;;;3.58;2.47;;;;;;;34.66;17.81;100800.17;1743500;82;21135;-70
2021/05/23 09:06:36;;;;;;;9.53;3.20;;;;;;;34.66;18.14;100809.20;1735182;81;20934;-72
2021/05/23 09:09:07;;;;;;;5.00;3.72;;;;;;;34.60;17.97;100802.52;1735307;82;20931;-72
2021/05/23 09:11:34;;;;;;;4.72;2.47;;;;;;;34.56;18.76;100799.45;1734652;81;20927;-70
2021/05/23 09:14:08;;;;;;;3.22;2.58;;;;;;;34.55;18.66;100798.33;1735310;82;21527;-70
2021/05/23 09:19:42;;;;;;;6.65;2.75;;;;;;;34.67;19.01;100789.03;1776578;78;22668;-70
2021/05/23 09:22:10;;;;;;;4.60;2.42;;;;;;;34.58;18.69;100797.30;1749296;82;20859;-71
2021/05/23 09:24:55;;;;;;;10.18;3.22;;;;;;;34.65;18.04;100791.72;1749251;80;21088;-72
2021/05/23 09:27:24;;;;;;;11.55;3.42;;;;;;;34.67;18.59;100791.76;1749118;82;20906;-70
2021/05/23 09:30:21;;;;;;;5.20;3.00;;;;;;;34.75;18.00;100792.41;1749305;82;20977;-71
2021/05/23 09:32:46;;;;;;;8.40;2.98;;;;;;;34.68;17.76;100795.30;1748368;82;21025;-70
2021/05/23 09:35:15;;;;;;;7.60;3.20;;;;;;;34.58;18.40;100792.41;1749160;80;20986;-71
2021/05/23 09:37:43;;;;;;;11.33;4.15;;;;;;;34.61;19.31;100795.98;1749301;82;21097;-73
2021/05/23 09:40:22;;;;;;;6.83;3.52;;;;;;;34.61;18.12;100797.34;1749022;80;20930;-74
2021/05/23 09:42:51;;;;;;;5.70;3.10;;;;;;;34.51;18.41;100793.92;1749191;82;20987;-73
2021/05/23 09:45:19;;;;;;;6.08;3.15;;;;;;;34.46;18.50;100782.92;1749318;82;20933;-73
2021/05/23 09:47:58;;;;;;;6.22;2.80;;;;;;;34.50;18.01;100788.72;1749234;82;20910;-73
2021/05/23 09:50:39;;;;;;;5.33;2.70;;;;;;;34.61;17.15;100789.17;1748663;82;21092;-71
2021/05/23 09:53:31;;;;;;;15.20;2.67;;;;;;;34.70;17.69;100793.70;1749084;82;20949;-72
2021/05/23 09:56:08;;;;;;;2.80;1.20;;;;;;;34.72;17.30;100788.83;1749427;81;20894;-72
2021/05/23 09:58:41;;;;;;;3.17;2.27;;;;;;;34.68;16.49;100793.94;1749145;80;21566;-72
2021/05/23 10:01:11;;;;;;;9.93;3.42;;;;;;;34.50;16.24;100786.81;1749179;82;20910;-69
2021/05/23 10:03:40;;;;;;;5.17;3.80;;;;;;;34.24;17.27;100789.63;1746978;82;21091;-70
2021/05/23 10:06:08;;;;;;;13.62;3.50;;;;;;;33.93;17.74;100780.91;1749132;81;20954;-69
2021/05/23 10:08:35;;;;;;;4.83;3.10;;;;;;;33.82;17.84;100773.07;1749150;82;21450;-69
2021/05/23 10:11:02;;;;;;;2.85;1.65;;;;;;;33.72;18.58;100772.05;1749192;80;20961;-69
2021/05/23 10:13:29;;;;;;;8.60;1.60;;;;;;;33.67;18.02;100777.39;1749110;82;21430;-65
2021/05/23 10:15:57;;;;;;;1.25;0.70;;;;;;;33.42;18.64;100783.94;1749238;82;21507;-70
2021/05/23 10:18:28;;;;;;;1.42;1.10;;;;;;;33.03;18.28;100776.80;1744721;82;21010;-63
2021/05/23 10:20:58;;;;;;;1.00;0.65;;;;;;;32.68;18.51;100771.36;1736010;82;26795;-77
2021/05/23 10:23:36;;;;;;;1.47;1.00;;;;;;;32.10;18.22;100773.68;1735901;81;21042;-73
2021/05/23 10:26:06;;;;;;;4.60;0.90;;;;;;;31.58;19.80;100768.72;1725876;82;20902;-74
2021/05/23 10:28:41;;;;;;;1.90;0.88;;;;;;;31.32;19.95;100767.11;1736025;81;21045;-75
2021/05/23 10:31:08;;;;;;;2.87;0.85;;;;;;;31.09;20.26;100765.08;1735378;81;20970;-69
2021/05/23 10:33:35;;;;;;;3.08;0.82;;;;;;;30.85;20.89;100765.91;1735386;82;20907;-68
2021/05/23 10:36:06;;;;;;;6.62;1.52;;;;;;;30.64;21.26;100769.83;1735355;82;21392;-70
2021/05/23 10:38:33;;;;;;;3.50;1.42;;;;;;;30.40;22.76;100760.68;1735388;82;20951;-69
2021/05/23 10:41:07;;;;;;;2.47;0.93;;;;;;;30.19;22.88;100770.76;1735573;82;21415;-68
2021/05/23 10:43:36;;;;;;;1.82;1.00;;;;;;;29.96;22.80;100769.97;1735430;81;20962;-69
2021/05/23 10:46:13;;;;;;;1.60;0.72;;;;;;;29.70;23.33;100776.33;1735637;82;20887;-67
2021/05/23 10:48:54;;;;;;;3.95;1.20;;;;;;;29.49;23.23;100768.80;1735201;81;20939;-74
2021/05/23 10:51:21;;;;;;;2.17;1.62;;;;;;;29.34;23.91;100770.92;1737388;79;20911;-77
2021/05/23 10:53:48;;;;;;;3.92;1.77;;;;;;;29.29;24.57;100776.14;1736336;82;21068;-67
2021/05/23 10:56:24;;;;;;;1.95;1.10;;;;;;;29.25;24.01;100771.66;1736913;82;20931;-67
2021/05/23 10:59:01;;;;;;;7.58;2.02;;;;;;;29.24;24.11;100770.55;1736248;82;20918;-66
2021/05/23 11:01:44;;;;;;;2.80;2.20;;;;;;;29.21;24.69;100785.81;1735487;82;20915;-71
2021/05/23 11:04:18;;;;;;;2.17;1.12;;;;;;;29.22;25.19;100778.86;1735454;81;21400;-67
2021/05/23 11:06:47;;;;;;;6.97;1.40;;;;;;;29.29;25.26;100778.31;1735525;82;21082;-69
2021/05/23 11:09:23;;;;;;;3.87;1.05;;;;;;;29.34;25.77;100773.09;1735327;81;21077;-67
2021/05/23 11:11:48;;;;;;;3.87;1.10;;;;;;;29.46;26.46;100777.34;1735112;82;20922;-67
2021/05/23 11:14:24;;;;;;;2.95;0.95;;;;;;;29.66;26.02;100774.56;1735316;82;20939;-67
2021/05/23 11:16:58;;;;;;;2.22;0.70;;;;;;;29.81;25.84;100783.77;1735527;82;20895;-67
2021/05/23 11:19:30;;;;;;;3.27;0.93;;;;;;;29.91;25.92;100787.38;1743762;81;21042;-66
2021/05/23 11:21:58;;;;;;;2.37;0.45;;;;;;;29.82;25.65;100782.73;1748369;82;20954;-68
2021/05/23 11:24:31;;;;;;;2.55;0.98;;;;;;;29.70;26.34;100784.44;1749416;82;20887;-68
2021/05/23 11:27:01;;;;;;;1.95;1.22;;;;;;;29.57;26.73;100787.16;1748457;80;20986;-67
2021/05/23 11:29:28;;;;;;;1.62;1.40;;;;;;;29.34;26.08;100784.43;1740298;82;20929;-68
2021/05/23 11:31:55;;;;;;;3.10;1.12;;;;;;;29.09;26.47;100788.33;1749433;82;21107;-68
2021/05/23 11:34:22;;;;;;;1.00;0.60;;;;;;;28.99;28.04;100787.89;1749478;82;21391;-66